sensor_id;sensor_type;location;lat;lon;timestamp;P1;durP1;ratioP1;P2;durP2;ratioP2
8058;SDS011;4072;42.668;23.396;2023-02-28T00:00:17;22.20;;;14.37;;
8058;SDS011;4072;42.668;23.396;2023-02-28T00:02:46;22.17;;;14.10;;
8058;SDS011;4072;42.668;23.396;2023-02-28T00:05:15;20.90;;;14.47;;
8058;SDS011;4072;42.668;23.396;2023-02-28T00:07:43;18.43;;;13.60;;
8058;SDS011;4072;42.668;23.396;2023-02-28T00:10:12;19.33;;;14.40;;
8058;SDS011;4072;42.668;23.396;2023-02-28T00:12:41;19.10;;;13.70;;
8058;SDS011;4072;42.668;23.396;2023-02-28T00:15:10;20.80;;;14.43;;
8058;SDS011;4072;42.668;23.396;2023-02-28T00:17:39;21.70;;;14.27;;
8058;SDS011;4072;42.668;23.396;2023-02-28T00:20:10;18.67;;;12.57;;
8058;SDS011;4072;42.668;23.396;2023-02-28T00:22:39;20.37;;;13.37;;
8058;SDS011;4072;42.668;23.396;2023-02-28T00:25:09;19.20;;;13.57;;
8058;SDS011;4072;42.668;23.396;2023-02-28T00:27:37;21.37;;;15.00;;
8058;SDS011;4072;42.668;23.396;2023-02-28T00:30:09;24.80;;;15.43;;
8058;SDS011;4072;42.668;23.396;2023-02-28T00:32:38;23.73;;;15.80;;
8058;SDS011;4072;42.668;23.396;2023-02-28T00:35:07;22.27;;;15.70;;
8058;SDS011;4072;42.668;23.396;2023-02-28T00:37:36;24.40;;;16.87;;
8058;SDS011;4072;42.668;23.396;2023-02-28T00:40:05;24.73;;;16.73;;
8058;SDS011;4072;42.668;23.396;2023-02-28T00:42:35;22.87;;;14.97;;
8058;SDS011;4072;42.668;23.396;2023-02-28T00:45:06;22.80;;;16.10;;
8058;SDS011;4072;42.668;23.396;2023-02-28T00:47:35;25.50;;;17.10;;
8058;SDS011;4072;42.668;23.396;2023-02-28T00:50:05;23.60;;;17.77;;
8058;SDS011;4072;42.668;23.396;2023-02-28T00:52:36;23.13;;;16.60;;
8058;SDS011;4072;42.668;23.396;2023-02-28T00:55:04;24.97;;;18.20;;
8058;SDS011;4072;42.668;23.396;2023-02-28T00:57:32;19.80;;;14.47;;
8058;SDS011;4072;42.668;23.396;2023-02-28T01:00:00;21.83;;;14.77;;
8058;SDS011;4072;42.668;23.396;2023-02-28T01:02:28;22.60;;;15.63;;
8058;SDS011;4072;42.668;23.396;2023-02-28T01:04:56;25.57;;;16.17;;
8058;SDS011;4072;42.668;23.396;2023-02-28T01:07:25;27.73;;;16.33;;
8058;SDS011;4072;42.668;23.396;2023-02-28T01:09:54;24.70;;;17.10;;
8058;SDS011;4072;42.668;23.396;2023-02-28T01:12:22;20.23;;;14.73;;
8058;SDS011;4072;42.668;23.396;2023-02-28T01:14:50;22.93;;;14.60;;
8058;SDS011;4072;42.668;23.396;2023-02-28T01:17:21;23.23;;;15.83;;
8058;SDS011;4072;42.668;23.396;2023-02-28T01:19:49;24.13;;;16.80;;
8058;SDS011;4072;42.668;23.396;2023-02-28T01:22:22;25.13;;;17.20;;
8058;SDS011;4072;42.668;23.396;2023-02-28T01:24:52;24.53;;;17.10;;
8058;SDS011;4072;42.668;23.396;2023-02-28T01:27:20;22.93;;;17.23;;
8058;SDS011;4072;42.668;23.396;2023-02-28T01:29:50;27.53;;;18.27;;
8058;SDS011;4072;42.668;23.396;2023-02-28T01:32:18;27.90;;;18.30;;
8058;SDS011;4072;42.668;23.396;2023-02-28T01:34:46;27.57;;;18.53;;
8058;SDS011;4072;42.668;23.396;2023-02-28T01:37:13;29.10;;;18.13;;
8058;SDS011;4072;42.668;23.396;2023-02-28T01:39:41;27.10;;;18.20;;
8058;SDS011;4072;42.668;23.396;2023-02-28T01:42:11;30.67;;;20.73;;
8058;SDS011;4072;42.668;23.396;2023-02-28T01:45:00;32.90;;;19.97;;
8058;SDS011;4072;42.668;23.396;2023-02-28T01:47:29;29.60;;;19.20;;
8058;SDS011;4072;42.668;23.396;2023-02-28T01:49:58;28.03;;;18.50;;
8058;SDS011;4072;42.668;23.396;2023-02-28T01:52:26;27.67;;;18.73;;
8058;SDS011;4072;42.668;23.396;2023-02-28T01:54:55;28.90;;;18.97;;
8058;SDS011;4072;42.668;23.396;2023-02-28T01:57:27;28.17;;;19.00;;
8058;SDS011;4072;42.668;23.396;2023-02-28T01:59:58;26.27;;;18.57;;
8058;SDS011;4072;42.668;23.396;2023-02-28T02:02:30;25.27;;;17.77;;
8058;SDS011;4072;42.668;23.396;2023-02-28T02:04:58;27.13;;;19.33;;
8058;SDS011;4072;42.668;23.396;2023-02-28T02:07:29;27.03;;;19.00;;
8058;SDS011;4072;42.668;23.396;2023-02-28T02:10:09;29.40;;;19.10;;
8058;SDS011;4072;42.668;23.396;2023-02-28T02:12:44;28.53;;;19.97;;
8058;SDS011;4072;42.668;23.396;2023-02-28T02:15:18;29.20;;;20.53;;
8058;SDS011;4072;42.668;23.396;2023-02-28T02:17:48;32.03;;;20.47;;
8058;SDS011;4072;42.668;23.396;2023-02-28T02:25:53;29.43;;;20.00;;
8058;SDS011;4072;42.668;23.396;2023-02-28T02:37:11;29.60;;;19.20;;
8058;SDS011;4072;42.668;23.396;2023-02-28T02:39:44;28.57;;;19.53;;
8058;SDS011;4072;42.668;23.396;2023-02-28T02:42:16;30.30;;;20.00;;
8058;SDS011;4072;42.668;23.396;2023-02-28T02:44:47;29.90;;;19.97;;
8058;SDS011;4072;42.668;23.396;2023-02-28T02:47:18;31.83;;;19.83;;
8058;SDS011;4072;42.668;23.396;2023-02-28T02:49:48;30.67;;;20.93;;
8058;SDS011;4072;42.668;23.396;2023-02-28T02:52:32;27.10;;;19.53;;
8058;SDS011;4072;42.668;23.396;2023-02-28T02:55:01;36.20;;;21.17;;
8058;SDS011;4072;42.668;23.396;2023-02-28T02:57:30;36.60;;;22.93;;
8058;SDS011;4072;42.668;23.396;2023-02-28T02:59:59;33.33;;;20.43;;
8058;SDS011;4072;42.668;23.396;2023-02-28T03:02:31;32.90;;;21.83;;
8058;SDS011;4072;42.668;23.396;2023-02-28T03:05:01;38.20;;;23.63;;
8058;SDS011;4072;42.668;23.396;2023-02-28T03:07:31;33.50;;;21.37;;
8058;SDS011;4072;42.668;23.396;2023-02-28T03:09:59;34.40;;;22.27;;
8058;SDS011;4072;42.668;23.396;2023-02-28T03:12:32;32.87;;;21.70;;
8058;SDS011;4072;42.668;23.396;2023-02-28T03:15:05;36.13;;;22.00;;
8058;SDS011;4072;42.668;23.396;2023-02-28T03:17:40;33.87;;;22.67;;
8058;SDS011;4072;42.668;23.396;2023-02-28T03:20:15;33.67;;;21.00;;
8058;SDS011;4072;42.668;23.396;2023-02-28T03:22:48;31.43;;;18.77;;
8058;SDS011;4072;42.668;23.396;2023-02-28T03:25:21;34.73;;;21.50;;
8058;SDS011;4072;42.668;23.396;2023-02-28T03:27:52;35.23;;;21.77;;
8058;SDS011;4072;42.668;23.396;2023-02-28T03:30:22;39.63;;;24.37;;
8058;SDS011;4072;42.668;23.396;2023-02-28T03:32:54;35.47;;;23.17;;
8058;SDS011;4072;42.668;23.396;2023-02-28T03:35:23;38.70;;;22.40;;
8058;SDS011;4072;42.668;23.396;2023-02-28T03:37:55;44.90;;;20.87;;
8058;SDS011;4072;42.668;23.396;2023-02-28T03:40:27;54.07;;;24.13;;
8058;SDS011;4072;42.668;23.396;2023-02-28T03:42:58;37.20;;;23.30;;
8058;SDS011;4072;42.668;23.396;2023-02-28T03:45:28;52.00;;;22.57;;
8058;SDS011;4072;42.668;23.396;2023-02-28T03:47:58;47.40;;;25.90;;
8058;SDS011;4072;42.668;23.396;2023-02-28T03:50:29;44.17;;;25.17;;
8058;SDS011;4072;42.668;23.396;2023-02-28T03:53:04;38.37;;;23.27;;
8058;SDS011;4072;42.668;23.396;2023-02-28T03:55:37;42.77;;;26.00;;
8058;SDS011;4072;42.668;23.396;2023-02-28T03:58:09;43.30;;;22.30;;
8058;SDS011;4072;42.668;23.396;2023-02-28T04:00:40;33.37;;;20.70;;
8058;SDS011;4072;42.668;23.396;2023-02-28T04:03:11;37.57;;;23.60;;
8058;SDS011;4072;42.668;23.396;2023-02-28T04:05:45;45.30;;;25.27;;
8058;SDS011;4072;42.668;23.396;2023-02-28T04:08:15;44.33;;;24.43;;
8058;SDS011;4072;42.668;23.396;2023-02-28T04:10:43;37.97;;;23.03;;
8058;SDS011;4072;42.668;23.396;2023-02-28T04:13:13;47.97;;;25.47;;
8058;SDS011;4072;42.668;23.396;2023-02-28T04:15:41;44.27;;;25.63;;
8058;SDS011;4072;42.668;23.396;2023-02-28T04:18:09;44.97;;;25.53;;
8058;SDS011;4072;42.668;23.396;2023-02-28T04:20:37;41.17;;;24.77;;
8058;SDS011;4072;42.668;23.396;2023-02-28T04:23:05;45.13;;;26.43;;
8058;SDS011;4072;42.668;23.396;2023-02-28T04:25:35;41.33;;;25.63;;
8058;SDS011;4072;42.668;23.396;2023-02-28T04:28:03;45.27;;;25.77;;
8058;SDS011;4072;42.668;23.396;2023-02-28T04:30:31;48.47;;;28.50;;
8058;SDS011;4072;42.668;23.396;2023-02-28T04:33:00;61.70;;;34.00;;
8058;SDS011;4072;42.668;23.396;2023-02-28T04:35:28;59.43;;;32.70;;
8058;SDS011;4072;42.668;23.396;2023-02-28T04:37:56;68.37;;;37.40;;
8058;SDS011;4072;42.668;23.396;2023-02-28T04:40:24;70.57;;;38.33;;
8058;SDS011;4072;42.668;23.396;2023-02-28T04:42:54;75.43;;;35.83;;
8058;SDS011;4072;42.668;23.396;2023-02-28T04:45:22;59.47;;;27.07;;
8058;SDS011;4072;42.668;23.396;2023-02-28T04:47:50;62.37;;;27.10;;
8058;SDS011;4072;42.668;23.396;2023-02-28T04:50:20;65.43;;;30.87;;
8058;SDS011;4072;42.668;23.396;2023-02-28T04:52:47;41.03;;;21.03;;
8058;SDS011;4072;42.668;23.396;2023-02-28T04:55:15;67.27;;;25.43;;
8058;SDS011;4072;42.668;23.396;2023-02-28T04:57:43;46.13;;;23.77;;
8058;SDS011;4072;42.668;23.396;2023-02-28T05:00:13;74.03;;;25.00;;
8058;SDS011;4072;42.668;23.396;2023-02-28T05:02:43;67.83;;;27.70;;
8058;SDS011;4072;42.668;23.396;2023-02-28T05:05:10;63.03;;;29.23;;
8058;SDS011;4072;42.668;23.396;2023-02-28T05:07:43;58.57;;;30.27;;
8058;SDS011;4072;42.668;23.396;2023-02-28T05:10:12;80.73;;;35.97;;
8058;SDS011;4072;42.668;23.396;2023-02-28T05:12:40;75.57;;;34.23;;
8058;SDS011;4072;42.668;23.396;2023-02-28T05:15:08;89.50;;;36.90;;
8058;SDS011;4072;42.668;23.396;2023-02-28T05:17:41;65.50;;;35.10;;
8058;SDS011;4072;42.668;23.396;2023-02-28T05:20:10;67.87;;;34.40;;
8058;SDS011;4072;42.668;23.396;2023-02-28T05:22:41;70.47;;;33.03;;
8058;SDS011;4072;42.668;23.396;2023-02-28T05:25:10;82.03;;;30.80;;
8058;SDS011;4072;42.668;23.396;2023-02-28T05:27:39;61.90;;;29.80;;
8058;SDS011;4072;42.668;23.396;2023-02-28T05:30:08;61.47;;;30.90;;
8058;SDS011;4072;42.668;23.396;2023-02-28T05:32:38;50.93;;;29.07;;
8058;SDS011;4072;42.668;23.396;2023-02-28T05:35:11;55.33;;;28.43;;
8058;SDS011;4072;42.668;23.396;2023-02-28T05:37:39;55.10;;;27.60;;
8058;SDS011;4072;42.668;23.396;2023-02-28T05:40:07;55.23;;;28.57;;
8058;SDS011;4072;42.668;23.396;2023-02-28T05:42:36;48.57;;;26.47;;
8058;SDS011;4072;42.668;23.396;2023-02-28T05:45:05;57.13;;;26.80;;
8058;SDS011;4072;42.668;23.396;2023-02-28T05:47:33;57.53;;;27.83;;
8058;SDS011;4072;42.668;23.396;2023-02-28T05:50:01;70.67;;;31.07;;
8058;SDS011;4072;42.668;23.396;2023-02-28T05:52:31;50.70;;;25.67;;
8058;SDS011;4072;42.668;23.396;2023-02-28T05:54:59;55.30;;;29.40;;
8058;SDS011;4072;42.668;23.396;2023-02-28T05:57:27;45.23;;;24.53;;
8058;SDS011;4072;42.668;23.396;2023-02-28T05:59:54;50.60;;;25.17;;
8058;SDS011;4072;42.668;23.396;2023-02-28T06:02:23;52.97;;;29.67;;
8058;SDS011;4072;42.668;23.396;2023-02-28T06:04:51;51.40;;;28.17;;
8058;SDS011;4072;42.668;23.396;2023-02-28T06:07:18;54.67;;;28.03;;
8058;SDS011;4072;42.668;23.396;2023-02-28T06:09:50;51.07;;;28.80;;
8058;SDS011;4072;42.668;23.396;2023-02-28T06:12:20;53.53;;;29.20;;
8058;SDS011;4072;42.668;23.396;2023-02-28T06:14:50;49.43;;;28.03;;
8058;SDS011;4072;42.668;23.396;2023-02-28T06:17:17;49.00;;;27.87;;
8058;SDS011;4072;42.668;23.396;2023-02-28T06:19:45;57.57;;;26.83;;
8058;SDS011;4072;42.668;23.396;2023-02-28T06:22:14;74.83;;;36.03;;
8058;SDS011;4072;42.668;23.396;2023-02-28T06:24:45;72.20;;;36.03;;
8058;SDS011;4072;42.668;23.396;2023-02-28T06:27:14;58.77;;;32.10;;
8058;SDS011;4072;42.668;23.396;2023-02-28T06:29:42;51.63;;;30.93;;
8058;SDS011;4072;42.668;23.396;2023-02-28T06:32:10;50.30;;;28.13;;
8058;SDS011;4072;42.668;23.396;2023-02-28T06:34:38;49.93;;;29.10;;
8058;SDS011;4072;42.668;23.396;2023-02-28T06:37:07;47.03;;;28.63;;
8058;SDS011;4072;42.668;23.396;2023-02-28T06:39:35;39.77;;;26.10;;
8058;SDS011;4072;42.668;23.396;2023-02-28T06:42:03;46.77;;;30.87;;
8058;SDS011;4072;42.668;23.396;2023-02-28T06:44:32;43.90;;;27.60;;
8058;SDS011;4072;42.668;23.396;2023-02-28T06:47:02;48.27;;;30.40;;
8058;SDS011;4072;42.668;23.396;2023-02-28T06:49:32;52.60;;;35.37;;
8058;SDS011;4072;42.668;23.396;2023-02-28T06:52:00;53.87;;;37.97;;
8058;SDS011;4072;42.668;23.396;2023-02-28T06:54:28;51.10;;;35.50;;
8058;SDS011;4072;42.668;23.396;2023-02-28T06:56:57;44.37;;;29.03;;
8058;SDS011;4072;42.668;23.396;2023-02-28T06:59:25;44.13;;;30.07;;
8058;SDS011;4072;42.668;23.396;2023-02-28T07:01:54;46.67;;;29.00;;
8058;SDS011;4072;42.668;23.396;2023-02-28T07:04:22;37.50;;;28.00;;
8058;SDS011;4072;42.668;23.396;2023-02-28T07:06:50;40.63;;;28.70;;
8058;SDS011;4072;42.668;23.396;2023-02-28T07:09:18;34.73;;;24.40;;
8058;SDS011;4072;42.668;23.396;2023-02-28T07:11:46;32.07;;;25.13;;
8058;SDS011;4072;42.668;23.396;2023-02-28T07:14:16;31.90;;;23.13;;
8058;SDS011;4072;42.668;23.396;2023-02-28T07:16:43;34.03;;;22.87;;
8058;SDS011;4072;42.668;23.396;2023-02-28T07:19:13;36.30;;;22.43;;
8058;SDS011;4072;42.668;23.396;2023-02-28T07:21:41;30.70;;;21.43;;
8058;SDS011;4072;42.668;23.396;2023-02-28T07:24:09;36.63;;;22.73;;
8058;SDS011;4072;42.668;23.396;2023-02-28T07:26:37;31.00;;;22.27;;
8058;SDS011;4072;42.668;23.396;2023-02-28T07:29:05;33.30;;;23.40;;
8058;SDS011;4072;42.668;23.396;2023-02-28T07:31:33;34.53;;;21.80;;
8058;SDS011;4072;42.668;23.396;2023-02-28T07:34:01;32.80;;;24.17;;
8058;SDS011;4072;42.668;23.396;2023-02-28T07:36:30;35.57;;;24.40;;
8058;SDS011;4072;42.668;23.396;2023-02-28T07:38:58;33.03;;;21.73;;
8058;SDS011;4072;42.668;23.396;2023-02-28T07:41:26;32.57;;;22.83;;
8058;SDS011;4072;42.668;23.396;2023-02-28T07:43:56;34.57;;;26.10;;
8058;SDS011;4072;42.668;23.396;2023-02-28T07:46:26;39.83;;;28.10;;
8058;SDS011;4072;42.668;23.396;2023-02-28T07:48:56;37.87;;;25.57;;
8058;SDS011;4072;42.668;23.396;2023-02-28T07:51:27;34.93;;;24.43;;
8058;SDS011;4072;42.668;23.396;2023-02-28T07:53:57;34.70;;;25.57;;
8058;SDS011;4072;42.668;23.396;2023-02-28T07:56:25;55.67;;;35.23;;
8058;SDS011;4072;42.668;23.396;2023-02-28T07:58:54;43.20;;;27.27;;
8058;SDS011;4072;42.668;23.396;2023-02-28T08:01:22;37.13;;;25.27;;
8058;SDS011;4072;42.668;23.396;2023-02-28T08:03:50;35.60;;;25.27;;
8058;SDS011;4072;42.668;23.396;2023-02-28T08:06:20;33.47;;;23.23;;
8058;SDS011;4072;42.668;23.396;2023-02-28T08:08:48;38.30;;;26.57;;
8058;SDS011;4072;42.668;23.396;2023-02-28T08:11:18;36.00;;;27.07;;
8058;SDS011;4072;42.668;23.396;2023-02-28T08:13:46;36.23;;;25.63;;
8058;SDS011;4072;42.668;23.396;2023-02-28T08:16:14;35.33;;;22.30;;
8058;SDS011;4072;42.668;23.396;2023-02-28T08:18:48;33.73;;;21.33;;
8058;SDS011;4072;42.668;23.396;2023-02-28T08:21:17;33.87;;;23.27;;
8058;SDS011;4072;42.668;23.396;2023-02-28T08:23:46;32.00;;;17.93;;
8058;SDS011;4072;42.668;23.396;2023-02-28T08:26:14;24.20;;;15.87;;
8058;SDS011;4072;42.668;23.396;2023-02-28T08:28:44;30.73;;;19.90;;
8058;SDS011;4072;42.668;23.396;2023-02-28T08:31:12;29.80;;;17.93;;
8058;SDS011;4072;42.668;23.396;2023-02-28T08:33:41;29.93;;;20.23;;
8058;SDS011;4072;42.668;23.396;2023-02-28T08:36:10;33.30;;;19.90;;
8058;SDS011;4072;42.668;23.396;2023-02-28T08:38:42;26.10;;;18.07;;
8058;SDS011;4072;42.668;23.396;2023-02-28T08:41:11;28.30;;;13.83;;
8058;SDS011;4072;42.668;23.396;2023-02-28T08:43:39;31.67;;;20.50;;
8058;SDS011;4072;42.668;23.396;2023-02-28T08:46:09;32.27;;;20.07;;
8058;SDS011;4072;42.668;23.396;2023-02-28T08:48:39;25.90;;;17.37;;
8058;SDS011;4072;42.668;23.396;2023-02-28T08:51:08;18.70;;;13.90;;
8058;SDS011;4072;42.668;23.396;2023-02-28T08:53:37;24.37;;;16.30;;
8058;SDS011;4072;42.668;23.396;2023-02-28T08:56:06;24.47;;;16.33;;
8058;SDS011;4072;42.668;23.396;2023-02-28T08:58:35;25.83;;;17.07;;
8058;SDS011;4072;42.668;23.396;2023-02-28T09:01:07;18.90;;;12.77;;
8058;SDS011;4072;42.668;23.396;2023-02-28T09:03:37;23.77;;;15.80;;
8058;SDS011;4072;42.668;23.396;2023-02-28T09:06:05;23.93;;;15.40;;
8058;SDS011;4072;42.668;23.396;2023-02-28T09:08:33;22.93;;;14.67;;
8058;SDS011;4072;42.668;23.396;2023-02-28T09:11:02;23.63;;;16.50;;
8058;SDS011;4072;42.668;23.396;2023-02-28T09:13:31;25.43;;;17.83;;
8058;SDS011;4072;42.668;23.396;2023-02-28T09:16:00;27.33;;;18.60;;
8058;SDS011;4072;42.668;23.396;2023-02-28T09:18:29;27.83;;;18.83;;
8058;SDS011;4072;42.668;23.396;2023-02-28T09:20:58;23.40;;;14.33;;
8058;SDS011;4072;42.668;23.396;2023-02-28T09:23:27;25.13;;;17.00;;
8058;SDS011;4072;42.668;23.396;2023-02-28T09:25:55;23.63;;;14.47;;
8058;SDS011;4072;42.668;23.396;2023-02-28T09:28:23;24.43;;;17.17;;
8058;SDS011;4072;42.668;23.396;2023-02-28T09:30:52;19.77;;;12.93;;
8058;SDS011;4072;42.668;23.396;2023-02-28T09:33:20;21.70;;;15.30;;
8058;SDS011;4072;42.668;23.396;2023-02-28T09:35:48;19.10;;;14.53;;
8058;SDS011;4072;42.668;23.396;2023-02-28T09:38:19;18.23;;;13.63;;
8058;SDS011;4072;42.668;23.396;2023-02-28T09:40:48;18.83;;;13.93;;
8058;SDS011;4072;42.668;23.396;2023-02-28T09:43:17;23.23;;;15.70;;
8058;SDS011;4072;42.668;23.396;2023-02-28T09:45:47;28.80;;;15.90;;
8058;SDS011;4072;42.668;23.396;2023-02-28T09:48:17;23.60;;;14.33;;
8058;SDS011;4072;42.668;23.396;2023-02-28T09:50:49;23.67;;;15.67;;
8058;SDS011;4072;42.668;23.396;2023-02-28T09:53:21;26.17;;;15.83;;
8058;SDS011;4072;42.668;23.396;2023-02-28T09:55:51;22.80;;;15.30;;
8058;SDS011;4072;42.668;23.396;2023-02-28T09:58:23;20.13;;;13.23;;
8058;SDS011;4072;42.668;23.396;2023-02-28T10:00:56;20.00;;;10.40;;
8058;SDS011;4072;42.668;23.396;2023-02-28T10:03:27;18.90;;;12.13;;
8058;SDS011;4072;42.668;23.396;2023-02-28T10:05:59;19.20;;;13.17;;
8058;SDS011;4072;42.668;23.396;2023-02-28T10:08:32;21.40;;;13.77;;
8058;SDS011;4072;42.668;23.396;2023-02-28T10:11:01;24.03;;;14.23;;
8058;SDS011;4072;42.668;23.396;2023-02-28T10:13:33;16.03;;;11.47;;
8058;SDS011;4072;42.668;23.396;2023-02-28T10:16:03;16.87;;;12.37;;
8058;SDS011;4072;42.668;23.396;2023-02-28T10:18:40;19.77;;;13.20;;
8058;SDS011;4072;42.668;23.396;2023-02-28T10:21:13;24.60;;;12.27;;
8058;SDS011;4072;42.668;23.396;2023-02-28T10:23:44;17.30;;;11.50;;
8058;SDS011;4072;42.668;23.396;2023-02-28T10:26:14;17.83;;;10.57;;
8058;SDS011;4072;42.668;23.396;2023-02-28T10:28:44;17.73;;;12.10;;
8058;SDS011;4072;42.668;23.396;2023-02-28T10:31:14;17.87;;;10.43;;
8058;SDS011;4072;42.668;23.396;2023-02-28T10:33:44;18.27;;;12.60;;
8058;SDS011;4072;42.668;23.396;2023-02-28T10:36:13;19.83;;;12.20;;
8058;SDS011;4072;42.668;23.396;2023-02-28T10:38:45;18.47;;;12.47;;
8058;SDS011;4072;42.668;23.396;2023-02-28T10:41:14;18.30;;;11.33;;
8058;SDS011;4072;42.668;23.396;2023-02-28T10:43:43;17.43;;;11.43;;
8058;SDS011;4072;42.668;23.396;2023-02-28T10:46:13;18.27;;;11.93;;
8058;SDS011;4072;42.668;23.396;2023-02-28T10:49:00;17.33;;;12.00;;
8058;SDS011;4072;42.668;23.396;2023-02-28T10:51:33;20.87;;;13.17;;
8058;SDS011;4072;42.668;23.396;2023-02-28T10:54:10;18.70;;;13.30;;
8058;SDS011;4072;42.668;23.396;2023-02-28T10:56:42;19.57;;;10.57;;
8058;SDS011;4072;42.668;23.396;2023-02-28T10:59:24;24.40;;;11.87;;
8058;SDS011;4072;42.668;23.396;2023-02-28T11:01:54;19.50;;;12.60;;
8058;SDS011;4072;42.668;23.396;2023-02-28T11:04:32;17.70;;;12.17;;
8058;SDS011;4072;42.668;23.396;2023-02-28T11:07:03;20.07;;;11.60;;
8058;SDS011;4072;42.668;23.396;2023-02-28T11:09:34;16.40;;;9.70;;
8058;SDS011;4072;42.668;23.396;2023-02-28T11:12:05;18.43;;;12.63;;
8058;SDS011;4072;42.668;23.396;2023-02-28T11:14:35;24.07;;;13.17;;
8058;SDS011;4072;42.668;23.396;2023-02-28T11:17:11;19.23;;;12.53;;
8058;SDS011;4072;42.668;23.396;2023-02-28T11:19:44;15.40;;;11.73;;
8058;SDS011;4072;42.668;23.396;2023-02-28T11:22:15;19.43;;;12.60;;
8058;SDS011;4072;42.668;23.396;2023-02-28T11:24:47;16.67;;;10.40;;
8058;SDS011;4072;42.668;23.396;2023-02-28T11:30:22;20.33;;;12.73;;
8058;SDS011;4072;42.668;23.396;2023-02-28T11:32:51;20.43;;;13.40;;
8058;SDS011;4072;42.668;23.396;2023-02-28T11:35:21;15.80;;;11.23;;
8058;SDS011;4072;42.668;23.396;2023-02-28T11:37:51;23.27;;;13.87;;
8058;SDS011;4072;42.668;23.396;2023-02-28T11:40:24;17.53;;;12.40;;
8058;SDS011;4072;42.668;23.396;2023-02-28T11:42:57;21.63;;;13.57;;
8058;SDS011;4072;42.668;23.396;2023-02-28T11:45:36;17.83;;;12.70;;
8058;SDS011;4072;42.668;23.396;2023-02-28T11:48:08;23.33;;;13.37;;
8058;SDS011;4072;42.668;23.396;2023-02-28T11:53:33;21.80;;;13.20;;
8058;SDS011;4072;42.668;23.396;2023-02-28T11:56:05;17.60;;;12.30;;
8058;SDS011;4072;42.668;23.396;2023-02-28T11:58:41;18.93;;;11.57;;
8058;SDS011;4072;42.668;23.396;2023-02-28T12:01:22;17.93;;;11.87;;
8058;SDS011;4072;42.668;23.396;2023-02-28T12:03:58;23.73;;;13.63;;
8058;SDS011;4072;42.668;23.396;2023-02-28T12:06:32;18.47;;;12.40;;
8058;SDS011;4072;42.668;23.396;2023-02-28T12:09:03;18.93;;;12.03;;
8058;SDS011;4072;42.668;23.396;2023-02-28T12:11:38;17.30;;;11.23;;
8058;SDS011;4072;42.668;23.396;2023-02-28T12:16:59;21.53;;;13.97;;
8058;SDS011;4072;42.668;23.396;2023-02-28T12:19:31;19.70;;;13.40;;
8058;SDS011;4072;42.668;23.396;2023-02-28T12:22:12;14.50;;;11.23;;
8058;SDS011;4072;42.668;23.396;2023-02-28T12:24:55;16.17;;;12.90;;
8058;SDS011;4072;42.668;23.396;2023-02-28T12:27:30;18.73;;;12.83;;
8058;SDS011;4072;42.668;23.396;2023-02-28T12:30:01;20.67;;;11.37;;
8058;SDS011;4072;42.668;23.396;2023-02-28T12:32:31;23.10;;;14.20;;
8058;SDS011;4072;42.668;23.396;2023-02-28T12:35:01;24.33;;;11.47;;
8058;SDS011;4072;42.668;23.396;2023-02-28T12:37:31;20.40;;;12.60;;
8058;SDS011;4072;42.668;23.396;2023-02-28T12:40:05;17.00;;;12.50;;
8058;SDS011;4072;42.668;23.396;2023-02-28T12:42:38;17.77;;;12.43;;
8058;SDS011;4072;42.668;23.396;2023-02-28T12:45:08;17.80;;;12.00;;
8058;SDS011;4072;42.668;23.396;2023-02-28T12:47:38;17.90;;;12.47;;
8058;SDS011;4072;42.668;23.396;2023-02-28T12:50:08;20.10;;;11.73;;
8058;SDS011;4072;42.668;23.396;2023-02-28T12:52:40;16.43;;;11.27;;
8058;SDS011;4072;42.668;23.396;2023-02-28T12:55:12;20.30;;;13.73;;
8058;SDS011;4072;42.668;23.396;2023-02-28T12:57:43;21.73;;;14.10;;
8058;SDS011;4072;42.668;23.396;2023-02-28T13:00:14;16.97;;;11.90;;
8058;SDS011;4072;42.668;23.396;2023-02-28T13:03:07;22.10;;;12.53;;
8058;SDS011;4072;42.668;23.396;2023-02-28T13:05:48;17.30;;;10.83;;
8058;SDS011;4072;42.668;23.396;2023-02-28T13:08:33;13.97;;;9.73;;
8058;SDS011;4072;42.668;23.396;2023-02-28T13:11:07;19.00;;;13.60;;
8058;SDS011;4072;42.668;23.396;2023-02-28T13:13:48;21.47;;;13.20;;
8058;SDS011;4072;42.668;23.396;2023-02-28T13:16:24;18.40;;;12.57;;
8058;SDS011;4072;42.668;23.396;2023-02-28T13:18:52;17.83;;;12.17;;
8058;SDS011;4072;42.668;23.396;2023-02-28T13:21:41;21.70;;;13.33;;
8058;SDS011;4072;42.668;23.396;2023-02-28T13:24:10;20.97;;;12.90;;
8058;SDS011;4072;42.668;23.396;2023-02-28T13:29:29;19.37;;;11.77;;
8058;SDS011;4072;42.668;23.396;2023-02-28T13:32:18;21.00;;;12.60;;
8058;SDS011;4072;42.668;23.396;2023-02-28T13:34:49;20.77;;;11.13;;
8058;SDS011;4072;42.668;23.396;2023-02-28T13:37:36;14.67;;;9.97;;
8058;SDS011;4072;42.668;23.396;2023-02-28T13:40:29;16.80;;;11.63;;
8058;SDS011;4072;42.668;23.396;2023-02-28T13:43:05;18.93;;;11.57;;
8058;SDS011;4072;42.668;23.396;2023-02-28T13:45:36;15.33;;;9.77;;
8058;SDS011;4072;42.668;23.396;2023-02-28T13:48:15;18.77;;;12.00;;
8058;SDS011;4072;42.668;23.396;2023-02-28T13:50:43;18.67;;;11.10;;
8058;SDS011;4072;42.668;23.396;2023-02-28T13:56:01;16.60;;;10.50;;
8058;SDS011;4072;42.668;23.396;2023-02-28T13:58:41;15.47;;;9.57;;
8058;SDS011;4072;42.668;23.396;2023-02-28T14:01:16;16.23;;;10.07;;
8058;SDS011;4072;42.668;23.396;2023-02-28T14:03:54;17.87;;;10.87;;
8058;SDS011;4072;42.668;23.396;2023-02-28T14:06:29;16.83;;;9.83;;
8058;SDS011;4072;42.668;23.396;2023-02-28T14:08:59;14.77;;;10.10;;
8058;SDS011;4072;42.668;23.396;2023-02-28T14:11:30;18.37;;;10.67;;
8058;SDS011;4072;42.668;23.396;2023-02-28T14:13:59;15.27;;;9.53;;
8058;SDS011;4072;42.668;23.396;2023-02-28T14:16:34;13.13;;;9.13;;
8058;SDS011;4072;42.668;23.396;2023-02-28T14:19:04;15.27;;;10.50;;
8058;SDS011;4072;42.668;23.396;2023-02-28T14:21:43;17.23;;;10.00;;
8058;SDS011;4072;42.668;23.396;2023-02-28T14:24:23;14.67;;;8.50;;
8058;SDS011;4072;42.668;23.396;2023-02-28T14:26:56;16.17;;;11.00;;
8058;SDS011;4072;42.668;23.396;2023-02-28T14:29:33;15.67;;;10.57;;
8058;SDS011;4072;42.668;23.396;2023-02-28T14:32:05;22.13;;;10.27;;
8058;SDS011;4072;42.668;23.396;2023-02-28T14:34:39;20.33;;;11.40;;
8058;SDS011;4072;42.668;23.396;2023-02-28T14:37:10;19.07;;;10.97;;
8058;SDS011;4072;42.668;23.396;2023-02-28T14:39:41;22.93;;;13.27;;
8058;SDS011;4072;42.668;23.396;2023-02-28T14:42:28;22.47;;;13.20;;
8058;SDS011;4072;42.668;23.396;2023-02-28T14:44:57;18.33;;;10.87;;
8058;SDS011;4072;42.668;23.396;2023-02-28T14:47:27;13.67;;;8.53;;
8058;SDS011;4072;42.668;23.396;2023-02-28T14:49:56;14.97;;;10.07;;
8058;SDS011;4072;42.668;23.396;2023-02-28T14:52:26;15.73;;;8.57;;
8058;SDS011;4072;42.668;23.396;2023-02-28T14:54:57;20.07;;;10.03;;
8058;SDS011;4072;42.668;23.396;2023-02-28T14:57:27;18.00;;;9.83;;
8058;SDS011;4072;42.668;23.396;2023-02-28T14:59:56;18.87;;;10.67;;
8058;SDS011;4072;42.668;23.396;2023-02-28T15:02:31;14.33;;;8.33;;
8058;SDS011;4072;42.668;23.396;2023-02-28T15:05:01;13.20;;;9.43;;
8058;SDS011;4072;42.668;23.396;2023-02-28T15:07:29;15.87;;;9.47;;
8058;SDS011;4072;42.668;23.396;2023-02-28T15:10:07;13.70;;;8.30;;
8058;SDS011;4072;42.668;23.396;2023-02-28T15:12:37;15.77;;;8.10;;
8058;SDS011;4072;42.668;23.396;2023-02-28T15:15:13;16.20;;;9.10;;
8058;SDS011;4072;42.668;23.396;2023-02-28T15:17:43;14.90;;;9.23;;
8058;SDS011;4072;42.668;23.396;2023-02-28T15:20:13;15.53;;;10.50;;
8058;SDS011;4072;42.668;23.396;2023-02-28T15:22:42;12.93;;;9.37;;
8058;SDS011;4072;42.668;23.396;2023-02-28T15:25:11;12.47;;;8.80;;